sensor_id;sensor_type;location;lat;lon;timestamp;pressure;altitude;pressure_sealevel;temperature;humidity
72570;BME280;60594;50.204;8.844;2023-04-01T00:00:57;98262.56;;;9.78;85.80
72570;BME280;60594;50.204;8.844;2023-04-01T00:03:24;98265.22;;;9.78;85.98
72570;BME280;60594;50.204;8.844;2023-04-01T00:05:54;98259.38;;;9.75;86.04
72570;BME280;60594;50.204;8.844;2023-04-01T00:08:20;98257.06;;;9.80;85.13
72570;BME280;60594;50.204;8.844;2023-04-01T00:10:47;98261.56;;;9.71;86.63
72570;BME280;60594;50.204;8.844;2023-04-01T00:13:13;98263.19;;;9.80;84.73
72570;BME280;60594;50.204;8.844;2023-04-01T00:15:40;98252.25;;;9.75;84.80
72570;BME280;60594;50.204;8.844;2023-04-01T00:18:07;98260.06;;;9.85;84.64
72570;BME280;60594;50.204;8.844;2023-04-01T00:20:35;98258.22;;;9.77;85.04
72570;BME280;60594;50.204;8.844;2023-04-01T00:23:02;98238.94;;;9.75;84.67
72570;BME280;60594;50.204;8.844;2023-04-01T00:25:28;98257.56;;;9.75;85.71
72570;BME280;60594;50.204;8.844;2023-04-01T00:27:55;98250.06;;;9.71;86.29
72570;BME280;60594;50.204;8.844;2023-04-01T00:30:22;98262.88;;;9.67;85.94
72570;BME280;60594;50.204;8.844;2023-04-01T00:32:51;98262.56;;;9.70;85.70
72570;BME280;60594;50.204;8.844;2023-04-01T00:35:19;98248.25;;;9.71;85.16
72570;BME280;60594;50.204;8.844;2023-04-01T00:37:45;98250.91;;;9.71;86.21
72570;BME280;60594;50.204;8.844;2023-04-01T00:40:30;98263.53;;;9.69;86.24
72570;BME280;60594;50.204;8.844;2023-04-01T00:42:57;98246.25;;;9.73;85.19
72570;BME280;60594;50.204;8.844;2023-04-01T00:47:51;98250.38;;;9.68;86.04
72570;BME280;60594;50.204;8.844;2023-04-01T00:50:17;98257.88;;;9.64;85.79
72570;BME280;60594;50.204;8.844;2023-04-01T00:52:44;98244.09;;;9.69;85.31
72570;BME280;60594;50.204;8.844;2023-04-01T00:55:12;98244.59;;;9.64;85.13
72570;BME280;60594;50.204;8.844;2023-04-01T00:57:42;98241.75;;;9.66;86.09
72570;BME280;60594;50.204;8.844;2023-04-01T01:00:12;98248.41;;;9.70;84.91
72570;BME280;60594;50.204;8.844;2023-04-01T01:02:41;98244.91;;;9.69;84.62
72570;BME280;60594;50.204;8.844;2023-04-01T01:05:12;98246.59;;;9.70;84.64
72570;BME280;60594;50.204;8.844;2023-04-01T01:08:01;98249.41;;;9.69;84.56
72570;BME280;60594;50.204;8.844;2023-04-01T01:10:35;98251.72;;;9.72;84.36
72570;BME280;60594;50.204;8.844;2023-04-01T01:13:17;98244.06;;;9.61;86.46
72570;BME280;60594;50.204;8.844;2023-04-01T01:18:27;98245.75;;;9.62;86.34
72570;BME280;60594;50.204;8.844;2023-04-01T01:27:10;98245.56;;;9.55;86.59
72570;BME280;60594;50.204;8.844;2023-04-01T01:29:59;98243.75;;;9.56;84.70
72570;BME280;60594;50.204;8.844;2023-04-01T01:32:49;98246.06;;;9.51;86.03
72570;BME280;60594;50.204;8.844;2023-04-01T01:37:56;98246.72;;;9.53;86.00
72570;BME280;60594;50.204;8.844;2023-04-01T01:40:26;98244.56;;;9.48;84.48
72570;BME280;60594;50.204;8.844;2023-04-01T01:42:56;98243.09;;;9.54;84.38
72570;BME280;60594;50.204;8.844;2023-04-01T01:45:26;98247.25;;;9.64;83.89
72570;BME280;60594;50.204;8.844;2023-04-01T01:47:55;98243.41;;;9.59;84.74
72570;BME280;60594;50.204;8.844;2023-04-01T01:50:25;98242.41;;;9.60;85.21
72570;BME280;60594;50.204;8.844;2023-04-01T01:53:07;98230.13;;;9.51;85.56
72570;BME280;60594;50.204;8.844;2023-04-01T01:55:38;98240.91;;;9.49;85.36
72570;BME280;60594;50.204;8.844;2023-04-01T01:58:33;98240.44;;;9.54;84.88
72570;BME280;60594;50.204;8.844;2023-04-01T02:01:10;98240.91;;;9.49;85.59
72570;BME280;60594;50.204;8.844;2023-04-01T02:03:40;98245.72;;;9.46;86.38
72570;BME280;60594;50.204;8.844;2023-04-01T02:06:11;98234.91;;;9.47;85.44
72570;BME280;60594;50.204;8.844;2023-04-01T02:08:52;98236.91;;;9.45;85.27
72570;BME280;60594;50.204;8.844;2023-04-01T02:11:36;98227.41;;;9.35;86.29
72570;BME280;60594;50.204;8.844;2023-04-01T02:14:13;98233.88;;;9.32;87.00
72570;BME280;60594;50.204;8.844;2023-04-01T02:16:55;98234.06;;;9.31;86.59
72570;BME280;60594;50.204;8.844;2023-04-01T02:19:36;98232.91;;;9.33;86.23
72570;BME280;60594;50.204;8.844;2023-04-01T02:22:06;98244.03;;;9.37;86.27
72570;BME280;60594;50.204;8.844;2023-04-01T02:24:35;98239.22;;;9.32;86.33
72570;BME280;60594;50.204;8.844;2023-04-01T02:27:03;98233.72;;;9.34;86.85
72570;BME280;60594;50.204;8.844;2023-04-01T02:29:31;98227.59;;;9.33;86.25
72570;BME280;60594;50.204;8.844;2023-04-01T02:31:58;98243.03;;;9.38;85.76
72570;BME280;60594;50.204;8.844;2023-04-01T02:34:26;98250.19;;;9.37;85.96
72570;BME280;60594;50.204;8.844;2023-04-01T02:36:52;98234.91;;;9.31;86.38
72570;BME280;60594;50.204;8.844;2023-04-01T02:39:20;98218.47;;;9.36;85.99
72570;BME280;60594;50.204;8.844;2023-04-01T02:41:46;98236.75;;;9.39;85.61
72570;BME280;60594;50.204;8.844;2023-04-01T02:44:14;98242.88;;;9.31;86.33
72570;BME280;60594;50.204;8.844;2023-04-01T02:46:41;98242.53;;;9.34;86.11
72570;BME280;60594;50.204;8.844;2023-04-01T02:49:08;98237.06;;;9.36;86.01
72570;BME280;60594;50.204;8.844;2023-04-01T02:51:34;98238.03;;;9.35;85.67
72570;BME280;60594;50.204;8.844;2023-04-01T02:54:01;98230.59;;;9.30;86.24
72570;BME280;60594;50.204;8.844;2023-04-01T02:56:28;98232.56;;;9.28;86.23
72570;BME280;60594;50.204;8.844;2023-04-01T02:58:55;98231.91;;;9.26;86.39
72570;BME280;60594;50.204;8.844;2023-04-01T03:01:21;98236.88;;;9.29;86.00
72570;BME280;60594;50.204;8.844;2023-04-01T03:03:49;98230.91;;;9.27;87.07
72570;BME280;60594;50.204;8.844;2023-04-01T03:06:16;98224.88;;;9.17;87.22
72570;BME280;60594;50.204;8.844;2023-04-01T03:08:43;98231.38;;;9.23;87.37
72570;BME280;60594;50.204;8.844;2023-04-01T03:11:10;98240.50;;;9.20;87.59
72570;BME280;60594;50.204;8.844;2023-04-01T03:13:37;98238.19;;;9.17;88.33
72570;BME280;60594;50.204;8.844;2023-04-01T03:16:04;98237.19;;;9.18;87.05
72570;BME280;60594;50.204;8.844;2023-04-01T03:18:30;98246.31;;;9.24;86.73
72570;BME280;60594;50.204;8.844;2023-04-01T03:20:57;98243.66;;;9.16;88.11
72570;BME280;60594;50.204;8.844;2023-04-01T03:23:38;98243.00;;;9.14;87.92
72570;BME280;60594;50.204;8.844;2023-04-01T03:26:04;98252.16;;;9.19;87.42
72570;BME280;60594;50.204;8.844;2023-04-01T03:28:31;98249.97;;;9.15;87.98
72570;BME280;60594;50.204;8.844;2023-04-01T03:30:57;98253.47;;;9.15;89.14
72570;BME280;60594;50.204;8.844;2023-04-01T03:33:24;98242.28;;;9.04;89.34
72570;BME280;60594;50.204;8.844;2023-04-01T03:35:50;98246.44;;;8.98;90.37
72570;BME280;60594;50.204;8.844;2023-04-01T03:38:19;98247.59;;;8.96;91.08
72570;BME280;60594;50.204;8.844;2023-04-01T03:40:46;98244.25;;;8.94;91.28
72570;BME280;60594;50.204;8.844;2023-04-01T03:43:12;98248.38;;;8.88;91.85
72570;BME280;60594;50.204;8.844;2023-04-01T03:45:46;98234.94;;;8.90;91.68
72570;BME280;60594;50.204;8.844;2023-04-01T03:48:14;98237.41;;;8.83;92.10
72570;BME280;60594;50.204;8.844;2023-04-01T03:50:41;98250.22;;;8.88;92.41
72570;BME280;60594;50.204;8.844;2023-04-01T03:53:08;98239.19;;;8.75;93.33
72570;BME280;60594;50.204;8.844;2023-04-01T03:55:35;98232.06;;;8.75;94.11
72570;BME280;60594;50.204;8.844;2023-04-01T03:58:03;98244.50;;;8.75;94.42
72570;BME280;60594;50.204;8.844;2023-04-01T04:00:30;98240.66;;;8.69;94.29
72570;BME280;60594;50.204;8.844;2023-04-01T04:02:57;98235.72;;;8.74;93.77
72570;BME280;60594;50.204;8.844;2023-04-01T04:05:30;98235.19;;;8.71;94.67
72570;BME280;60594;50.204;8.844;2023-04-01T04:07:57;98239.50;;;8.72;94.95
72570;BME280;60594;50.204;8.844;2023-04-01T04:10:24;98229.22;;;8.69;94.16
72570;BME280;60594;50.204;8.844;2023-04-01T04:12:52;98227.25;;;8.79;92.73
72570;BME280;60594;50.204;8.844;2023-04-01T04:15:20;98232.41;;;8.80;92.87
72570;BME280;60594;50.204;8.844;2023-04-01T04:17:47;98234.03;;;8.73;93.80
72570;BME280;60594;50.204;8.844;2023-04-01T04:20:14;98234.88;;;8.74;95.26
72570;BME280;60594;50.204;8.844;2023-04-01T04:22:41;98242.53;;;8.77;94.93
72570;BME280;60594;50.204;8.844;2023-04-01T04:25:08;98245.81;;;8.71;95.01
72570;BME280;60594;50.204;8.844;2023-04-01T04:27:36;98232.03;;;8.67;95.73
72570;BME280;60594;50.204;8.844;2023-04-01T04:30:08;98241.97;;;8.65;95.18
72570;BME280;60594;50.204;8.844;2023-04-01T04:32:35;98238.19;;;8.76;93.72
72570;BME280;60594;50.204;8.844;2023-04-01T04:35:01;98225.28;;;8.81;92.69
72570;BME280;60594;50.204;8.844;2023-04-01T04:37:28;98234.44;;;8.86;92.69
72570;BME280;60594;50.204;8.844;2023-04-01T04:39:55;98240.41;;;8.88;92.70
72570;BME280;60594;50.204;8.844;2023-04-01T04:42:21;98239.75;;;8.86;92.91
72570;BME280;60594;50.204;8.844;2023-04-01T04:44:48;98226.78;;;8.83;93.31
72570;BME280;60594;50.204;8.844;2023-04-01T04:47:15;98232.56;;;8.79;94.28
72570;BME280;60594;50.204;8.844;2023-04-01T04:49:42;98228.59;;;8.83;93.08
72570;BME280;60594;50.204;8.844;2023-04-01T04:52:09;98231.09;;;8.84;93.59
72570;BME280;60594;50.204;8.844;2023-04-01T04:54:36;98231.09;;;8.84;93.62
72570;BME280;60594;50.204;8.844;2023-04-01T04:57:04;98243.22;;;8.87;93.06
72570;BME280;60594;50.204;8.844;2023-04-01T04:59:35;98231.56;;;8.80;94.24
72570;BME280;60594;50.204;8.844;2023-04-01T05:02:22;98230.59;;;8.81;93.74
72570;BME280;60594;50.204;8.844;2023-04-01T05:04:48;98230.06;;;8.77;93.94
72570;BME280;60594;50.204;8.844;2023-04-01T05:07:15;98234.75;;;8.83;93.11
72570;BME280;60594;50.204;8.844;2023-04-01T05:09:41;98233.13;;;8.90;92.30
72570;BME280;60594;50.204;8.844;2023-04-01T05:12:08;98220.66;;;8.91;92.36
72570;BME280;60594;50.204;8.844;2023-04-01T05:14:55;98222.66;;;8.89;93.61
72570;BME280;60594;50.204;8.844;2023-04-01T05:17:21;98239.25;;;8.91;92.63
72570;BME280;60594;50.204;8.844;2023-04-01T05:19:48;98224.00;;;8.93;92.18
72570;BME280;60594;50.204;8.844;2023-04-01T05:22:14;98232.13;;;8.91;92.06
72570;BME280;60594;50.204;8.844;2023-04-01T05:24:41;98230.47;;;8.90;91.96
72570;BME280;60594;50.204;8.844;2023-04-01T05:27:08;98228.31;;;8.94;92.18
72570;BME280;60594;50.204;8.844;2023-04-01T05:29:38;98211.41;;;8.95;91.69
72570;BME280;60594;50.204;8.844;2023-04-01T05:32:08;98223.00;;;8.94;91.51
72570;BME280;60594;50.204;8.844;2023-04-01T05:34:34;98222.84;;;8.95;92.49
72570;BME280;60594;50.204;8.844;2023-04-01T05:37:01;98220.69;;;8.99;92.07
72570;BME280;60594;50.204;8.844;2023-04-01T05:39:27;98217.19;;;8.98;92.50
72570;BME280;60594;50.204;8.844;2023-04-01T05:41:54;98222.19;;;8.93;92.60
72570;BME280;60594;50.204;8.844;2023-04-01T05:44:21;98229.78;;;8.88;92.79
72570;BME280;60594;50.204;8.844;2023-04-01T05:47:10;98215.34;;;8.91;92.99
72570;BME280;60594;50.204;8.844;2023-04-01T05:49:37;98203.59;;;8.93;92.19
72570;BME280;60594;50.204;8.844;2023-04-01T05:52:04;98214.16;;;8.85;93.32
72570;BME280;60594;50.204;8.844;2023-04-01T05:54:34;98223.28;;;8.83;94.39
72570;BME280;60594;50.204;8.844;2023-04-01T05:57:01;98218.50;;;8.86;93.50
72570;BME280;60594;50.204;8.844;2023-04-01T05:59:27;98228.47;;;8.92;93.10
72570;BME280;60594;50.204;8.844;2023-04-01T06:01:55;98221.50;;;8.91;93.55
72570;BME280;60594;50.204;8.844;2023-04-01T06:04:21;98224.16;;;8.91;94.46
72570;BME280;60594;50.204;8.844;2023-04-01T06:06:48;98214.53;;;8.90;93.36
72570;BME280;60594;50.204;8.844;2023-04-01T06:09:19;98220.34;;;8.94;94.14
72570;BME280;60594;50.204;8.844;2023-04-01T06:17:34;98222.63;;;8.81;96.25
72570;BME280;60594;50.204;8.844;2023-04-01T06:25:59;98236.19;;;8.70;97.99
72570;BME280;60594;50.204;8.844;2023-04-01T06:31:20;98237.69;;;8.72;98.60
72570;BME280;60594;50.204;8.844;2023-04-01T06:39:51;98237.81;;;8.63;97.69
72570;BME280;60594;50.204;8.844;2023-04-01T06:42:37;98245.81;;;8.71;97.93
72570;BME280;60594;50.204;8.844;2023-04-01T06:48:33;98237.81;;;8.63;98.52
72570;BME280;60594;50.204;8.844;2023-04-01T06:54:36;98234.97;;;8.56;100.00
72570;BME280;60594;50.204;8.844;2023-04-01T06:57:34;98239.78;;;8.61;100.00
72570;BME280;60594;50.204;8.844;2023-04-01T07:00:04;98242.28;;;8.62;99.75
72570;BME280;60594;50.204;8.844;2023-04-01T07:02:45;98241.63;;;8.60;99.67
72570;BME280;60594;50.204;8.844;2023-04-01T07:05:15;98235.66;;;8.66;99.11
72570;BME280;60594;50.204;8.844;2023-04-01T07:07:53;98235.88;;;8.73;98.24
72570;BME280;60594;50.204;8.844;2023-04-01T07:13:44;98237.84;;;8.71;98.18
72570;BME280;60594;50.204;8.844;2023-04-01T07:16:24;98243.88;;;8.81;97.31
72570;BME280;60594;50.204;8.844;2023-04-01T07:18:58;98234.59;;;8.85;96.70
72570;BME280;60594;50.204;8.844;2023-04-01T07:21:40;98247.19;;;8.83;96.64
72570;BME280;60594;50.204;8.844;2023-04-01T07:24:21;98247.72;;;8.86;95.33
72570;BME280;60594;50.204;8.844;2023-04-01T07:27:01;98237.59;;;8.90;95.14
72570;BME280;60594;50.204;8.844;2023-04-01T07:29:31;98237.56;;;8.82;96.23
72570;BME280;60594;50.204;8.844;2023-04-01T07:37:45;98247.47;;;8.72;98.05
72570;BME280;60594;50.204;8.844;2023-04-01T07:40:32;98258.25;;;8.70;98.35
72570;BME280;60594;50.204;8.844;2023-04-01T07:43:26;98259.09;;;8.71;99.09
72570;BME280;60594;50.204;8.844;2023-04-01T07:48:55;98266.78;;;8.82;99.46
72570;BME280;60594;50.204;8.844;2023-04-01T07:51:49;98261.19;;;8.93;99.09
72570;BME280;60594;50.204;8.844;2023-04-01T07:54:32;98260.03;;;8.95;98.28
72570;BME280;60594;50.204;8.844;2023-04-01T07:57:46;98267.38;;;9.09;99.29
72570;BME280;60594;50.204;8.844;2023-04-01T08:00:20;98256.44;;;9.12;96.98
72570;BME280;60594;50.204;8.844;2023-04-01T08:05:47;98268.25;;;9.18;97.34
72570;BME280;60594;50.204;8.844;2023-04-01T08:08:46;98267.09;;;9.28;98.09
72570;BME280;60594;50.204;8.844;2023-04-01T08:12:04;98281.75;;;9.40;98.26
72570;BME280;60594;50.204;8.844;2023-04-01T08:18:32;98281.41;;;9.27;96.99
72570;BME280;60594;50.204;8.844;2023-04-01T08:21:12;98270.47;;;9.38;97.19
72570;BME280;60594;50.204;8.844;2023-04-01T08:23:43;98278.63;;;9.53;96.99
72570;BME280;60594;50.204;8.844;2023-04-01T08:26:26;98278.16;;;9.57;95.73
72570;BME280;60594;50.204;8.844;2023-04-01T08:29:04;98271.16;;;9.56;96.29
72570;BME280;60594;50.204;8.844;2023-04-01T08:32:09;98281.50;;;9.59;95.43
72570;BME280;60594;50.204;8.844;2023-04-01T08:34:40;98283.13;;;9.44;95.57
72570;BME280;60594;50.204;8.844;2023-04-01T08:37:23;98278.28;;;9.40;96.42
72570;BME280;60594;50.204;8.844;2023-04-01T08:39:58;98279.13;;;9.48;96.59
72570;BME280;60594;50.204;8.844;2023-04-01T08:42:55;98284.47;;;9.48;96.13
72570;BME280;60594;50.204;8.844;2023-04-01T08:48:22;98279.81;;;9.66;96.53
72570;BME280;60594;50.204;8.844;2023-04-01T08:54:24;98287.13;;;9.72;96.79
72570;BME280;60594;50.204;8.844;2023-04-01T09:03:39;98298.47;;;9.90;95.12
72570;BME280;60594;50.204;8.844;2023-04-01T09:09:21;98300.78;;;9.77;96.08
72570;BME280;60594;50.204;8.844;2023-04-01T09:12:09;98299.13;;;9.76;95.53
72570;BME280;60594;50.204;8.844;2023-04-01T09:14:59;98304.81;;;9.89;97.75
72570;BME280;60594;50.204;8.844;2023-04-01T09:28:55;98302.47;;;9.86;97.34
72570;BME280;60594;50.204;8.844;2023-04-01T09:31:55;98314.75;;;9.87;96.19
72570;BME280;60594;50.204;8.844;2023-04-01T09:35:06;98302.28;;;9.80;98.98
72570;BME280;60594;50.204;8.844;2023-04-01T09:40:56;98312.25;;;9.94;99.06
72570;BME280;60594;50.204;8.844;2023-04-01T09:44:03;98313.91;;;9.79;99.63
72570;BME280;60594;50.204;8.844;2023-04-01T09:52:32;98321.94;;;9.87;100.00
72570;BME280;60594;50.204;8.844;2023-04-01T09:55:56;98324.75;;;9.93;100.00
72570;BME280;60594;50.204;8.844;2023-04-01T10:02:01;98324.59;;;9.87;100.00
72570;BME280;60594;50.204;8.844;2023-04-01T10:13:49;98328.75;;;9.89;100.00
72570;BME280;60594;50.204;8.844;2023-04-01T10:21:53;98335.56;;;9.84;100.00
72570;BME280;60594;50.204;8.844;2023-04-01T10:27:38;98324.38;;;9.80;100.00
72570;BME280;60594;50.204;8.844;2023-04-01T10:33:38;98336.19;;;9.78;100.00
72570;BME280;60594;50.204;8.844;2023-04-01T10:36:40;98327.06;;;9.88;100.00
72570;BME280;60594;50.204;8.844;2023-04-01T10:39:37;98334.19;;;9.72;100.00
72570;BME280;60594;50.204;8.844;2023-04-01T11:00:18;98327.41;;;9.85;100.00
72570;BME280;60594;50.204;8.844;2023-04-01T11:03:22;98325.56;;;9.86;100.00
72570;BME280;60594;50.204;8.844;2023-04-01T11:11:43;98331.44;;;10.05;100.00
72570;BME280;60594;50.204;8.844;2023-04-01T11:17:09;98334.06;;;9.97;100.00
72570;BME280;60594;50.204;8.844;2023-04-01T11:19:58;98333.22;;;10.05;100.00
72570;BME280;60594;50.204;8.844;2023-04-01T11:25:43;98330.09;;;10.09;100.00
72570;BME280;60594;50.204;8.844;2023-04-01T11:43:13;98340.09;;;10.15;100.00
72570;BME280;60594;50.204;8.844;2023-04-01T11:46:51;98347.78;;;10.18;100.00
72570;BME280;60594;50.204;8.844;2023-04-01T11:52:18;98346.25;;;10.16;100.00
72570;BME280;60594;50.204;8.844;2023-04-01T11:55:19;98352.25;;;10.34;100.00
72570;BME280;60594;50.204;8.844;2023-04-01T11:57:59;98353.91;;;10.19;100.00
72570;BME280;60594;50.204;8.844;2023-04-01T12:00:50;98353.56;;;10.22;100.00
72570;BME280;60594;50.204;8.844;2023-04-01T12:03:46;98351.75;;;10.22;100.00
72570;BME280;60594;50.204;8.844;2023-04-01T12:06:30;98353.25;;;10.25;100.00
72570;BME280;60594;50.204;8.844;2023-04-01T12:12:18;98352.75;;;10.38;100.00
72570;BME280;60594;50.204;8.844;2023-04-01T12:15:13;98360.41;;;10.41;100.00
72570;BME280;60594;50.204;8.844;2023-04-01T12:18:10;98358.91;;;10.46;100.00
72570;BME280;60594;50.204;8.844;2023-04-01T12:20:51;98361.91;;;10.51;100.00
72570;BME280;60594;50.204;8.844;2023-04-01T12:26:23;98377.22;;;10.57;100.00
72570;BME280;60594;50.204;8.844;2023-04-01T12:31:58;98374.06;;;10.38;100.00
72570;BME280;60594;50.204;8.844;2023-04-01T12:37:19;98377.53;;;10.38;100.00
72570;BME280;60594;50.204;8.844;2023-04-01T12:40:19;98379.38;;;10.54;100.00
72570;BME280;60594;50.204;8.844;2023-04-01T12:45:35;98381.03;;;10.38;100.00
72570;BME280;60594;50.204;8.844;2023-04-01T12:56:03;98379.38;;;10.29;100.00
72570;BME280;60594;50.204;8.844;2023-04-01T13:02:00;98389.84;;;10.15;100.00
72570;BME280;60594;50.204;8.844;2023-04-01T13:10:07;98391.59;;;9.98;100.00
72570;BME280;60594;50.204;8.844;2023-04-01T13:12:59;98384.75;;;9.80;100.00
72570;BME280;60594;50.204;8.844;2023-04-01T13:15:57;98386.75;;;9.86;100.00
72570;BME280;60594;50.204;8.844;2023-04-01T13:21:03;98400.13;;;10.02;100.00
72570;BME280;60594;50.204;8.844;2023-04-01T13:26:16;98387.19;;;10.31;100.00
72570;BME280;60594;50.204;8.844;2023-04-01T13:28:52;98399.00;;;10.28;100.00
72570;BME280;60594;50.204;8.844;2023-04-01T13:31:38;98400.69;;;10.29;100.00
72570;BME280;60594;50.204;8.844;2023-04-01T13:37:19;98406.19;;;10.36;100.00
72570;BME280;60594;50.204;8.844;2023-04-01T13:42:31;98410.69;;;10.60;100.00
72570;BME280;60594;50.204;8.844;2023-04-01T13:45:14;98408.00;;;10.68;100.00
72570;BME280;60594;50.204;8.844;2023-04-01T13:53:51;98412.16;;;10.94;100.00
72570;BME280;60594;50.204;8.844;2023-04-01T14:05:10;98414.94;;;11.09;100.00
72570;BME280;60594;50.204;8.844;2023-04-01T14:07:50;98412.09;;;11.18;100.00
72570;BME280;60594;50.204;8.844;2023-04-01T14:10:31;98406.94;;;11.09;100.00
72570;BME280;60594;50.204;8.844;2023-04-01T14:13:20;98412.94;;;11.03;100.00
72570;BME280;60594;50.204;8.844;2023-04-01T14:18:45;98410.31;;;10.95;100.00
72570;BME280;60594;50.204;8.844;2023-04-01T14:21:31;98410.31;;;10.95;100.00
72570;BME280;60594;50.204;8.844;2023-04-01T14:24:22;98409.31;;;10.96;100.00
72570;BME280;60594;50.204;8.844;2023-04-01T14:29:43;98404.31;;;11.01;100.00
72570;BME280;60594;50.204;8.844;2023-04-01T14:32:28;98399.44;;;11.04;100.00
72570;BME280;60594;50.204;8.844;2023-04-01T14:35:22;98412.41;;;11.23;100.00
72570;BME280;60594;50.204;8.844;2023-04-01T14:38:04;98422.78;;;11.10;100.00
72570;BME280;60594;50.204;8.844;2023-04-01T14:40:48;98418.28;;;11.19;100.00
72570;BME280;60594;50.204;8.844;2023-04-01T14:49:00;98437.66;;;10.89;100.00
72570;BME280;60594;50.204;8.844;2023-04-01T14:56:47;98442.81;;;10.74;100.00
72570;BME280;60594;50.204;8.844;2023-04-01T14:59:27;98442.63;;;10.68;100.00
72570;BME280;60594;50.204;8.844;2023-04-01T15:04:49;98450.97;;;10.65;100.00
72570;BME280;60594;50.204;8.844;2023-04-01T15:08:00;98450.13;;;10.40;100.00
72570;BME280;60594;50.204;8.844;2023-04-01T15:10:45;98459.59;;;10.26;100.00
72570;BME280;60594;50.204;8.844;2023-04-01T15:21:18;98451.91;;;10.15;100.00
72570;BME280;60594;50.204;8.844;2023-04-01T15:29:43;98472.88;;;10.18;100.00
72570;BME280;60594;50.204;8.844;2023-04-01T15:43:23;98484.66;;;10.16;100.00
72570;BME280;60594;50.204;8.844;2023-04-01T15:45:58;98493.31;;;10.10;100.00
72570;BME280;60594;50.204;8.844;2023-04-01T15:48:46;98482.47;;;10.03;100.00
72570;BME280;60594;50.204;8.844;2023-04-01T15:57:28;98500.47;;;10.17;100.00
72570;BME280;60594;50.204;8.844;2023-04-01T16:00:24;98499.84;;;10.23;100.00
72570;BME280;60594;50.204;8.844;2023-04-01T16:11:43;98506.03;;;10.32;100.00
72570;BME280;60594;50.204;8.844;2023-04-01T16:22:45;98512.84;;;10.34;100.00
72570;BME280;60594;50.204;8.844;2023-04-01T16:25:31;98509.72;;;10.47;100.00
72570;BME280;60594;50.204;8.844;2023-04-01T16:28:13;98512.38;;;10.39;100.00
72570;BME280;60594;50.204;8.844;2023-04-01T16:31:03;98514.19;;;10.38;100.00
72570;BME280;60594;50.204;8.844;2023-04-01T16:33:37;98519.34;;;10.32;100.00
72570;BME280;60594;50.204;8.844;2023-04-01T16:36:12;98509.66;;;10.31;100.00
72570;BME280;60594;50.204;8.844;2023-04-01T16:41:24;98521.31;;;10.38;100.00
72570;BME280;60594;50.204;8.844;2023-04-01T16:44:09;98528.50;;;10.38;100.00
72570;BME280;60594;50.204;8.844;2023-04-01T16:46:41;98530.47;;;10.35;100.00
72570;BME280;60594;50.204;8.844;2023-04-01T16:56:53;98539.81;;;10.39;100.00
72570;BME280;60594;50.204;8.844;2023-04-01T16:59:29;98535.50;;;10.38;100.00
72570;BME280;60594;50.204;8.844;2023-04-01T17:02:09;98548.97;;;10.45;100.00
72570;BME280;60594;50.204;8.844;2023-04-01T17:16:04;98589.81;;;10.70;100.00
72570;BME280;60594;50.204;8.844;2023-04-01T17:18:59;98585.66;;;10.67;100.00
72570;BME280;60594;50.204;8.844;2023-04-01T17:21:48;98602.81;;;10.65;100.00
72570;BME280;60594;50.204;8.844;2023-04-01T17:24:30;98606.63;;;10.54;100.00
72570;BME280;60594;50.204;8.844;2023-04-01T17:27:11;98614.41;;;10.48;99.02
72570;BME280;60594;50.204;8.844;2023-04-01T17:30:02;98625.19;;;10.38;98.69
72570;BME280;60594;50.204;8.844;2023-04-01T17:35:39;98635.97;;;10.03;100.00
72570;BME280;60594;50.204;8.844;2023-04-01T17:41:34;98633.44;;;9.50;100.00
72570;BME280;60594;50.204;8.844;2023-04-01T17:47:01;98644.28;;;9.14;100.00
72570;BME280;60594;50.204;8.844;2023-04-01T17:49:52;98650.19;;;9.08;100.00
72570;BME280;60594;50.204;8.844;2023-04-01T17:52:53;98655.50;;;8.90;100.00
72570;BME280;60594;50.204;8.844;2023-04-01T17:55:38;98669.38;;;9.02;100.00
72570;BME280;60594;50.204;8.844;2023-04-01T17:58:18;98664.75;;;9.04;100.00
72570;BME280;60594;50.204;8.844;2023-04-01T18:03:53;98670.63;;;9.25;100.00
72570;BME280;60594;50.204;8.844;2023-04-01T18:12:05;98685.31;;;9.54;100.00
72570;BME280;60594;50.204;8.844;2023-04-01T18:17:18;98690.19;;;9.59;100.00
72570;BME280;60594;50.204;8.844;2023-04-01T18:22:46;98709.66;;;9.59;100.00
72570;BME280;60594;50.204;8.844;2023-04-01T18:25:38;98714.97;;;9.59;100.00
72570;BME280;60594;50.204;8.844;2023-04-01T18:31:15;98722.31;;;9.65;100.00
72570;BME280;60594;50.204;8.844;2023-04-01T18:33:59;98724.31;;;9.63;100.00
72570;BME280;60594;50.204;8.844;2023-04-01T18:39:40;98727.13;;;9.62;100.00
72570;BME280;60594;50.204;8.844;2023-04-01T18:42:15;98735.84;;;9.54;100.00
72570;BME280;60594;50.204;8.844;2023-04-01T18:44:53;98732.13;;;9.47;100.00
72570;BME280;60594;50.204;8.844;2023-04-01T18:47:43;98742.16;;;9.53;100.00
72570;BME280;60594;50.204;8.844;2023-04-01T18:50:40;98749.00;;;9.56;100.00
72570;BME280;60594;50.204;8.844;2023-04-01T18:53:35;98745.81;;;9.52;100.00
72570;BME280;60594;50.204;8.844;2023-04-01T18:56:09;98748.22;;;9.46;100.00
72570;BME280;60594;50.204;8.844;2023-04-01T18:59:05;98750.44;;;9.50;100.00
72570;BME280;60594;50.204;8.844;2023-04-01T19:02:02;98760.56;;;9.47;100.00
72570;BME280;60594;50.204;8.844;2023-04-01T19:04:57;98766.94;;;9.54;100.00
72570;BME280;60594;50.204;8.844;2023-04-01T19:12:53;98780.25;;;9.54;100.00
72570;BME280;60594;50.204;8.844;2023-04-01T19:21:29;98789.53;;;9.67;100.00
72570;BME280;60594;50.204;8.844;2023-04-01T19:37:40;98812.31;;;9.25;100.00
72570;BME280;60594;50.204;8.844;2023-04-01T19:40:21;98814.69;;;9.28;100.00
72570;BME280;60594;50.204;8.844;2023-04-01T19:46:06;98827.47;;;9.42;100.00
72570;BME280;60594;50.204;8.844;2023-04-01T19:48:47;98823.16;;;9.41;100.00
72570;BME280;60594;50.204;8.844;2023-04-01T19:51:31;98831.56;;;9.37;100.00
72570;BME280;60594;50.204;8.844;2023-04-01T19:59:38;98826.69;;;9.32;100.00
72570;BME280;60594;50.204;8.844;2023-04-01T20:02:28;98841.56;;;9.52;100.00
72570;BME280;60594;50.204;8.844;2023-04-01T20:05:10;98839.81;;;9.61;100.00
72570;BME280;60594;50.204;8.844;2023-04-01T20:08:00;98835.78;;;9.57;100.00
72570;BME280;60594;50.204;8.844;2023-04-01T20:17:01;98858.03;;;9.56;100.00
72570;BME280;60594;50.204;8.844;2023-04-01T20:19:58;98870.31;;;9.39;100.00